sensor_id;sensor_type;location;lat;lon;timestamp;temperature;humidity
4759;DHT22;2393;50.560;12.636;2023-03-30T00:00:55;9.80;99.90
4759;DHT22;2393;50.560;12.636;2023-03-30T00:03:24;9.90;99.90
4759;DHT22;2393;50.560;12.636;2023-03-30T00:05:54;9.90;99.90
4759;DHT22;2393;50.560;12.636;2023-03-30T00:08:25;9.90;99.90
4759;DHT22;2393;50.560;12.636;2023-03-30T00:10:59;9.90;99.90
4759;DHT22;2393;50.560;12.636;2023-03-30T00:13:28;10.00;99.90
4759;DHT22;2393;50.560;12.636;2023-03-30T00:15:56;10.00;99.90
4759;DHT22;2393;50.560;12.636;2023-03-30T00:18:48;10.10;99.90
4759;DHT22;2393;50.560;12.636;2023-03-30T00:21:24;10.10;99.90
4759;DHT22;2393;50.560;12.636;2023-03-30T00:24:05;10.10;99.90
4759;DHT22;2393;50.560;12.636;2023-03-30T00:26:42;10.10;99.90
4759;DHT22;2393;50.560;12.636;2023-03-30T00:29:31;10.10;99.90
4759;DHT22;2393;50.560;12.636;2023-03-30T00:32:24;10.20;99.90
4759;DHT22;2393;50.560;12.636;2023-03-30T00:34:59;10.20;99.90
4759;DHT22;2393;50.560;12.636;2023-03-30T00:38:04;10.30;99.90
4759;DHT22;2393;50.560;12.636;2023-03-30T00:41:04;10.30;99.90
4759;DHT22;2393;50.560;12.636;2023-03-30T00:44:04;10.30;99.90
4759;DHT22;2393;50.560;12.636;2023-03-30T00:46:51;10.30;99.90
4759;DHT22;2393;50.560;12.636;2023-03-30T00:53:27;10.30;99.90
4759;DHT22;2393;50.560;12.636;2023-03-30T00:56:18;10.30;99.90
4759;DHT22;2393;50.560;12.636;2023-03-30T00:59:21;10.30;99.90
4759;DHT22;2393;50.560;12.636;2023-03-30T01:02:29;10.40;99.90
4759;DHT22;2393;50.560;12.636;2023-03-30T01:05:42;10.50;99.90
4759;DHT22;2393;50.560;12.636;2023-03-30T01:08:17;10.50;99.90
4759;DHT22;2393;50.560;12.636;2023-03-30T01:14:43;10.60;99.90
4759;DHT22;2393;50.560;12.636;2023-03-30T01:17:20;10.80;99.90
4759;DHT22;2393;50.560;12.636;2023-03-30T01:20:22;10.90;99.90
4759;DHT22;2393;50.560;12.636;2023-03-30T01:23:08;10.90;99.90
4759;DHT22;2393;50.560;12.636;2023-03-30T01:29:06;10.90;99.90
4759;DHT22;2393;50.560;12.636;2023-03-30T01:35:08;10.90;99.90
4759;DHT22;2393;50.560;12.636;2023-03-30T01:38:13;10.90;99.90
4759;DHT22;2393;50.560;12.636;2023-03-30T01:41:05;10.90;99.90
4759;DHT22;2393;50.560;12.636;2023-03-30T01:43:42;11.00;99.90
4759;DHT22;2393;50.560;12.636;2023-03-30T01:46:18;11.00;99.90
4759;DHT22;2393;50.560;12.636;2023-03-30T01:48:58;11.00;99.90
4759;DHT22;2393;50.560;12.636;2023-03-30T01:51:32;11.00;99.90
4759;DHT22;2393;50.560;12.636;2023-03-30T01:54:05;11.00;99.90
4759;DHT22;2393;50.560;12.636;2023-03-30T01:56:41;11.10;99.90
4759;DHT22;2393;50.560;12.636;2023-03-30T01:59:18;11.10;99.90
4759;DHT22;2393;50.560;12.636;2023-03-30T02:01:50;11.00;99.90
4759;DHT22;2393;50.560;12.636;2023-03-30T02:04:44;11.10;99.90
4759;DHT22;2393;50.560;12.636;2023-03-30T02:07:36;11.10;99.90
4759;DHT22;2393;50.560;12.636;2023-03-30T02:10:34;11.10;99.90
4759;DHT22;2393;50.560;12.636;2023-03-30T02:13:18;11.10;99.90
4759;DHT22;2393;50.560;12.636;2023-03-30T02:15:54;11.10;99.90
4759;DHT22;2393;50.560;12.636;2023-03-30T02:18:23;11.20;99.90
4759;DHT22;2393;50.560;12.636;2023-03-30T02:20:51;11.20;99.90
4759;DHT22;2393;50.560;12.636;2023-03-30T02:23:20;11.20;99.90
4759;DHT22;2393;50.560;12.636;2023-03-30T02:25:51;11.20;99.90
4759;DHT22;2393;50.560;12.636;2023-03-30T02:28:21;11.20;99.90
4759;DHT22;2393;50.560;12.636;2023-03-30T02:30:49;11.20;99.90
4759;DHT22;2393;50.560;12.636;2023-03-30T02:33:23;11.20;99.90
4759;DHT22;2393;50.560;12.636;2023-03-30T02:36:10;11.20;99.90
4759;DHT22;2393;50.560;12.636;2023-03-30T02:39:08;11.20;99.90
4759;DHT22;2393;50.560;12.636;2023-03-30T02:44:58;11.20;99.90
4759;DHT22;2393;50.560;12.636;2023-03-30T02:47:35;11.20;99.90
4759;DHT22;2393;50.560;12.636;2023-03-30T02:50:13;11.20;99.90
4759;DHT22;2393;50.560;12.636;2023-03-30T02:52:53;11.20;99.90
4759;DHT22;2393;50.560;12.636;2023-03-30T02:55:28;11.20;99.90
4759;DHT22;2393;50.560;12.636;2023-03-30T02:58:35;11.20;99.90
4759;DHT22;2393;50.560;12.636;2023-03-30T03:01:17;11.20;99.90
4759;DHT22;2393;50.560;12.636;2023-03-30T03:03:56;11.20;99.90
4759;DHT22;2393;50.560;12.636;2023-03-30T03:06:30;11.20;99.90
4759;DHT22;2393;50.560;12.636;2023-03-30T03:08:59;11.20;99.90
4759;DHT22;2393;50.560;12.636;2023-03-30T03:11:30;11.20;99.90
4759;DHT22;2393;50.560;12.636;2023-03-30T03:13:59;11.20;99.90
4759;DHT22;2393;50.560;12.636;2023-03-30T03:16:30;11.20;99.90
4759;DHT22;2393;50.560;12.636;2023-03-30T03:19:17;11.20;99.90
4759;DHT22;2393;50.560;12.636;2023-03-30T03:21:48;11.20;99.90
4759;DHT22;2393;50.560;12.636;2023-03-30T03:24:16;11.10;99.90
4759;DHT22;2393;50.560;12.636;2023-03-30T03:27:02;11.10;99.90
4759;DHT22;2393;50.560;12.636;2023-03-30T03:29:41;11.00;99.90
4759;DHT22;2393;50.560;12.636;2023-03-30T03:32:10;11.10;99.90
4759;DHT22;2393;50.560;12.636;2023-03-30T03:34:43;11.10;99.90
4759;DHT22;2393;50.560;12.636;2023-03-30T03:37:12;11.00;99.90
4759;DHT22;2393;50.560;12.636;2023-03-30T03:39:42;11.00;99.90
4759;DHT22;2393;50.560;12.636;2023-03-30T03:42:11;11.00;99.90
4759;DHT22;2393;50.560;12.636;2023-03-30T03:44:48;10.90;99.90
4759;DHT22;2393;50.560;12.636;2023-03-30T03:47:17;10.90;99.90
4759;DHT22;2393;50.560;12.636;2023-03-30T03:49:46;10.90;99.90
4759;DHT22;2393;50.560;12.636;2023-03-30T03:52:14;10.80;99.90
4759;DHT22;2393;50.560;12.636;2023-03-30T03:54:42;10.80;99.90
4759;DHT22;2393;50.560;12.636;2023-03-30T03:57:10;10.80;99.90
4759;DHT22;2393;50.560;12.636;2023-03-30T03:59:38;10.80;99.90
4759;DHT22;2393;50.560;12.636;2023-03-30T04:02:06;10.80;99.90
4759;DHT22;2393;50.560;12.636;2023-03-30T04:04:37;10.80;99.90
4759;DHT22;2393;50.560;12.636;2023-03-30T04:07:05;10.70;99.90
4759;DHT22;2393;50.560;12.636;2023-03-30T04:09:33;10.70;99.90
4759;DHT22;2393;50.560;12.636;2023-03-30T04:12:16;10.70;99.90
4759;DHT22;2393;50.560;12.636;2023-03-30T04:15:13;10.70;99.90
4759;DHT22;2393;50.560;12.636;2023-03-30T04:17:54;10.70;99.90
4759;DHT22;2393;50.560;12.636;2023-03-30T04:20:44;10.70;99.90
4759;DHT22;2393;50.560;12.636;2023-03-30T04:23:35;10.70;99.90
4759;DHT22;2393;50.560;12.636;2023-03-30T04:26:22;10.60;99.90
4759;DHT22;2393;50.560;12.636;2023-03-30T04:28:58;10.60;99.90
4759;DHT22;2393;50.560;12.636;2023-03-30T04:32:02;10.60;99.90
4759;DHT22;2393;50.560;12.636;2023-03-30T04:34:49;10.60;99.90
4759;DHT22;2393;50.560;12.636;2023-03-30T04:37:21;10.60;99.90
4759;DHT22;2393;50.560;12.636;2023-03-30T04:40:19;10.60;99.90
4759;DHT22;2393;50.560;12.636;2023-03-30T04:42:49;10.60;99.90
4759;DHT22;2393;50.560;12.636;2023-03-30T04:45:36;10.70;99.90
4759;DHT22;2393;50.560;12.636;2023-03-30T04:48:24;10.70;99.90
4759;DHT22;2393;50.560;12.636;2023-03-30T04:51:10;10.70;99.90
4759;DHT22;2393;50.560;12.636;2023-03-30T04:53:58;10.80;99.90
4759;DHT22;2393;50.560;12.636;2023-03-30T04:56:46;10.80;99.90
4759;DHT22;2393;50.560;12.636;2023-03-30T04:59:34;10.90;99.90
4759;DHT22;2393;50.560;12.636;2023-03-30T05:02:21;11.00;99.90
4759;DHT22;2393;50.560;12.636;2023-03-30T05:05:13;11.00;99.90
4759;DHT22;2393;50.560;12.636;2023-03-30T05:08:04;11.10;99.90
4759;DHT22;2393;50.560;12.636;2023-03-30T05:10:47;11.10;99.90
4759;DHT22;2393;50.560;12.636;2023-03-30T05:13:44;11.20;99.90
4759;DHT22;2393;50.560;12.636;2023-03-30T05:16:33;11.30;99.90
4759;DHT22;2393;50.560;12.636;2023-03-30T05:19:11;11.40;99.90
4759;DHT22;2393;50.560;12.636;2023-03-30T05:21:42;11.40;99.90
4759;DHT22;2393;50.560;12.636;2023-03-30T05:24:36;11.50;99.90
4759;DHT22;2393;50.560;12.636;2023-03-30T05:27:05;11.50;99.90
4759;DHT22;2393;50.560;12.636;2023-03-30T05:29:42;11.60;99.90
4759;DHT22;2393;50.560;12.636;2023-03-30T05:32:28;11.70;99.90
4759;DHT22;2393;50.560;12.636;2023-03-30T05:35:22;11.70;99.90
4759;DHT22;2393;50.560;12.636;2023-03-30T05:38:02;11.80;99.90
4759;DHT22;2393;50.560;12.636;2023-03-30T05:40:45;11.80;99.90
4759;DHT22;2393;50.560;12.636;2023-03-30T05:43:38;11.80;99.90
4759;DHT22;2393;50.560;12.636;2023-03-30T05:46:21;11.80;99.90
4759;DHT22;2393;50.560;12.636;2023-03-30T05:48:49;11.90;99.90
4759;DHT22;2393;50.560;12.636;2023-03-30T05:51:25;11.90;99.90
4759;DHT22;2393;50.560;12.636;2023-03-30T05:54:11;11.90;99.90
4759;DHT22;2393;50.560;12.636;2023-03-30T05:56:59;11.80;99.90
4759;DHT22;2393;50.560;12.636;2023-03-30T05:59:32;11.80;99.90
4759;DHT22;2393;50.560;12.636;2023-03-30T06:02:20;11.90;99.90
4759;DHT22;2393;50.560;12.636;2023-03-30T06:04:49;11.80;99.90
4759;DHT22;2393;50.560;12.636;2023-03-30T06:07:18;11.80;99.90
4759;DHT22;2393;50.560;12.636;2023-03-30T06:09:48;11.80;99.90
4759;DHT22;2393;50.560;12.636;2023-03-30T06:12:22;11.80;99.90
4759;DHT22;2393;50.560;12.636;2023-03-30T06:14:52;11.90;99.90
4759;DHT22;2393;50.560;12.636;2023-03-30T06:17:28;11.80;99.90
4759;DHT22;2393;50.560;12.636;2023-03-30T06:19:57;11.80;99.90
4759;DHT22;2393;50.560;12.636;2023-03-30T06:22:26;11.80;99.90
4759;DHT22;2393;50.560;12.636;2023-03-30T06:25:03;11.80;99.90
4759;DHT22;2393;50.560;12.636;2023-03-30T06:27:31;11.80;99.90
4759;DHT22;2393;50.560;12.636;2023-03-30T06:30:01;11.80;99.90
4759;DHT22;2393;50.560;12.636;2023-03-30T06:32:29;11.80;99.90
4759;DHT22;2393;50.560;12.636;2023-03-30T06:35:16;11.90;99.90
4759;DHT22;2393;50.560;12.636;2023-03-30T06:37:44;11.80;99.90
4759;DHT22;2393;50.560;12.636;2023-03-30T06:40:13;11.80;99.90
4759;DHT22;2393;50.560;12.636;2023-03-30T06:42:45;11.80;99.90
4759;DHT22;2393;50.560;12.636;2023-03-30T06:45:27;11.80;99.90
4759;DHT22;2393;50.560;12.636;2023-03-30T06:47:55;11.80;99.90
4759;DHT22;2393;50.560;12.636;2023-03-30T06:50:23;11.80;99.90
4759;DHT22;2393;50.560;12.636;2023-03-30T06:52:59;11.90;99.90
4759;DHT22;2393;50.560;12.636;2023-03-30T06:55:35;11.90;99.90
4759;DHT22;2393;50.560;12.636;2023-03-30T06:58:03;11.90;99.90
4759;DHT22;2393;50.560;12.636;2023-03-30T07:00:32;12.00;99.90
4759;DHT22;2393;50.560;12.636;2023-03-30T07:03:19;12.10;99.90
4759;DHT22;2393;50.560;12.636;2023-03-30T07:06:06;12.10;99.90
4759;DHT22;2393;50.560;12.636;2023-03-30T07:08:36;12.30;99.90
4759;DHT22;2393;50.560;12.636;2023-03-30T07:11:08;12.50;99.90
4759;DHT22;2393;50.560;12.636;2023-03-30T07:13:38;12.60;99.90
4759;DHT22;2393;50.560;12.636;2023-03-30T07:16:09;12.70;99.90
4759;DHT22;2393;50.560;12.636;2023-03-30T07:18:37;12.70;99.90
4759;DHT22;2393;50.560;12.636;2023-03-30T07:21:06;12.70;99.90
4759;DHT22;2393;50.560;12.636;2023-03-30T07:23:39;12.80;99.90
4759;DHT22;2393;50.560;12.636;2023-03-30T07:26:10;12.80;99.90
4759;DHT22;2393;50.560;12.636;2023-03-30T07:28:49;12.80;99.90
4759;DHT22;2393;50.560;12.636;2023-03-30T07:31:21;12.80;99.90
4759;DHT22;2393;50.560;12.636;2023-03-30T07:33:50;12.90;99.90
4759;DHT22;2393;50.560;12.636;2023-03-30T07:36:23;12.90;99.90
4759;DHT22;2393;50.560;12.636;2023-03-30T07:38:51;13.00;99.90
4759;DHT22;2393;50.560;12.636;2023-03-30T07:41:19;13.10;99.90
4759;DHT22;2393;50.560;12.636;2023-03-30T07:43:52;13.20;99.90
4759;DHT22;2393;50.560;12.636;2023-03-30T07:46:21;13.20;99.90
4759;DHT22;2393;50.560;12.636;2023-03-30T07:48:53;13.30;99.90
4759;DHT22;2393;50.560;12.636;2023-03-30T07:51:21;13.40;99.90
4759;DHT22;2393;50.560;12.636;2023-03-30T07:54:02;13.30;99.90
4759;DHT22;2393;50.560;12.636;2023-03-30T07:56:44;13.30;99.90
4759;DHT22;2393;50.560;12.636;2023-03-30T07:59:18;13.30;99.90
4759;DHT22;2393;50.560;12.636;2023-03-30T08:01:49;13.30;99.90
4759;DHT22;2393;50.560;12.636;2023-03-30T08:04:36;13.20;99.90
4759;DHT22;2393;50.560;12.636;2023-03-30T08:07:05;13.20;99.90
4759;DHT22;2393;50.560;12.636;2023-03-30T08:09:33;13.20;99.90
4759;DHT22;2393;50.560;12.636;2023-03-30T08:12:02;13.20;99.90
4759;DHT22;2393;50.560;12.636;2023-03-30T08:14:30;13.20;99.90
4759;DHT22;2393;50.560;12.636;2023-03-30T08:17:00;13.20;99.90
4759;DHT22;2393;50.560;12.636;2023-03-30T08:19:28;13.20;99.90
4759;DHT22;2393;50.560;12.636;2023-03-30T08:21:56;13.10;99.90
4759;DHT22;2393;50.560;12.636;2023-03-30T08:24:24;13.00;99.90
4759;DHT22;2393;50.560;12.636;2023-03-30T08:26:52;12.90;99.90
4759;DHT22;2393;50.560;12.636;2023-03-30T08:29:20;12.80;99.90
4759;DHT22;2393;50.560;12.636;2023-03-30T08:31:49;12.70;99.90
4759;DHT22;2393;50.560;12.636;2023-03-30T08:34:19;12.50;99.90
4759;DHT22;2393;50.560;12.636;2023-03-30T08:36:47;12.40;99.90
4759;DHT22;2393;50.560;12.636;2023-03-30T08:39:15;12.30;99.90
4759;DHT22;2393;50.560;12.636;2023-03-30T08:44:49;12.10;99.90
4759;DHT22;2393;50.560;12.636;2023-03-30T08:47:25;11.90;99.90
4759;DHT22;2393;50.560;12.636;2023-03-30T08:50:05;11.80;99.90
4759;DHT22;2393;50.560;12.636;2023-03-30T08:52:34;11.70;99.90
4759;DHT22;2393;50.560;12.636;2023-03-30T08:55:04;11.60;99.90
4759;DHT22;2393;50.560;12.636;2023-03-30T08:57:41;11.50;99.90
4759;DHT22;2393;50.560;12.636;2023-03-30T09:00:20;11.30;99.90
4759;DHT22;2393;50.560;12.636;2023-03-30T09:02:54;11.10;99.90
4759;DHT22;2393;50.560;12.636;2023-03-30T09:05:29;11.00;99.90
4759;DHT22;2393;50.560;12.636;2023-03-30T09:08:02;10.90;99.90
4759;DHT22;2393;50.560;12.636;2023-03-30T09:10:36;10.80;99.90
4759;DHT22;2393;50.560;12.636;2023-03-30T09:13:07;10.70;99.90
4759;DHT22;2393;50.560;12.636;2023-03-30T09:15:41;10.70;99.90
4759;DHT22;2393;50.560;12.636;2023-03-30T09:18:14;10.60;99.90
4759;DHT22;2393;50.560;12.636;2023-03-30T09:20:47;10.50;99.90
4759;DHT22;2393;50.560;12.636;2023-03-30T09:23:17;10.50;99.90
4759;DHT22;2393;50.560;12.636;2023-03-30T09:25:49;10.40;99.90
4759;DHT22;2393;50.560;12.636;2023-03-30T09:28:24;10.40;99.90
4759;DHT22;2393;50.560;12.636;2023-03-30T09:30:59;10.40;99.90
4759;DHT22;2393;50.560;12.636;2023-03-30T09:33:37;10.40;99.90
4759;DHT22;2393;50.560;12.636;2023-03-30T09:36:14;10.40;99.90
4759;DHT22;2393;50.560;12.636;2023-03-30T09:38:43;10.40;99.90
4759;DHT22;2393;50.560;12.636;2023-03-30T09:41:23;10.30;99.90
4759;DHT22;2393;50.560;12.636;2023-03-30T09:43:55;10.30;99.90
4759;DHT22;2393;50.560;12.636;2023-03-30T09:46:24;10.30;99.90
4759;DHT22;2393;50.560;12.636;2023-03-30T09:48:53;10.40;99.90
4759;DHT22;2393;50.560;12.636;2023-03-30T09:51:24;10.40;99.90
4759;DHT22;2393;50.560;12.636;2023-03-30T09:53:59;10.40;99.90
4759;DHT22;2393;50.560;12.636;2023-03-30T09:56:34;10.50;99.90
4759;DHT22;2393;50.560;12.636;2023-03-30T09:59:19;10.60;99.90
4759;DHT22;2393;50.560;12.636;2023-03-30T10:01:47;10.60;99.90
4759;DHT22;2393;50.560;12.636;2023-03-30T10:04:15;10.60;99.90
4759;DHT22;2393;50.560;12.636;2023-03-30T10:06:47;10.60;99.90
4759;DHT22;2393;50.560;12.636;2023-03-30T10:09:17;10.50;99.90
4759;DHT22;2393;50.560;12.636;2023-03-30T10:11:49;10.50;99.90
4759;DHT22;2393;50.560;12.636;2023-03-30T10:14:29;10.50;99.90
4759;DHT22;2393;50.560;12.636;2023-03-30T10:16:59;10.50;99.90
4759;DHT22;2393;50.560;12.636;2023-03-30T10:19:28;10.50;99.90
4759;DHT22;2393;50.560;12.636;2023-03-30T10:21:59;10.60;99.90
4759;DHT22;2393;50.560;12.636;2023-03-30T10:24:31;10.50;99.90
4759;DHT22;2393;50.560;12.636;2023-03-30T10:27:07;10.60;99.90
4759;DHT22;2393;50.560;12.636;2023-03-30T10:29:37;10.60;99.90
4759;DHT22;2393;50.560;12.636;2023-03-30T10:32:16;10.70;99.90
4759;DHT22;2393;50.560;12.636;2023-03-30T10:34:46;10.80;99.90
4759;DHT22;2393;50.560;12.636;2023-03-30T10:37:20;10.90;99.90
4759;DHT22;2393;50.560;12.636;2023-03-30T10:39:51;10.90;99.90
4759;DHT22;2393;50.560;12.636;2023-03-30T10:42:21;11.00;99.90
4759;DHT22;2393;50.560;12.636;2023-03-30T10:44:52;11.00;99.90
4759;DHT22;2393;50.560;12.636;2023-03-30T10:47:44;11.00;99.90
4759;DHT22;2393;50.560;12.636;2023-03-30T10:50:23;11.00;99.90
4759;DHT22;2393;50.560;12.636;2023-03-30T10:53:02;11.00;99.90
4759;DHT22;2393;50.560;12.636;2023-03-30T10:55:41;11.00;99.90
4759;DHT22;2393;50.560;12.636;2023-03-30T10:58:22;11.10;99.90
4759;DHT22;2393;50.560;12.636;2023-03-30T11:00:59;11.10;99.90
4759;DHT22;2393;50.560;12.636;2023-03-30T11:03:30;11.10;99.90
4759;DHT22;2393;50.560;12.636;2023-03-30T11:06:03;11.10;99.90
4759;DHT22;2393;50.560;12.636;2023-03-30T11:08:40;11.20;99.90
4759;DHT22;2393;50.560;12.636;2023-03-30T11:11:14;11.20;99.90
4759;DHT22;2393;50.560;12.636;2023-03-30T11:13:47;11.20;99.90
4759;DHT22;2393;50.560;12.636;2023-03-30T11:16:20;11.30;99.90
4759;DHT22;2393;50.560;12.636;2023-03-30T11:18:53;11.30;99.90
4759;DHT22;2393;50.560;12.636;2023-03-30T11:21:26;11.30;99.90
4759;DHT22;2393;50.560;12.636;2023-03-30T11:24:01;11.40;99.90
4759;DHT22;2393;50.560;12.636;2023-03-30T11:26:34;11.50;99.90
4759;DHT22;2393;50.560;12.636;2023-03-30T11:29:20;11.50;99.90
4759;DHT22;2393;50.560;12.636;2023-03-30T11:31:57;11.70;99.90
4759;DHT22;2393;50.560;12.636;2023-03-30T11:34:31;11.80;99.90
4759;DHT22;2393;50.560;12.636;2023-03-30T11:37:06;11.90;99.90
4759;DHT22;2393;50.560;12.636;2023-03-30T11:39:44;12.00;99.90
4759;DHT22;2393;50.560;12.636;2023-03-30T11:42:19;12.10;99.90
4759;DHT22;2393;50.560;12.636;2023-03-30T11:44:49;12.20;99.90
4759;DHT22;2393;50.560;12.636;2023-03-30T11:47:39;12.40;99.90
4759;DHT22;2393;50.560;12.636;2023-03-30T11:50:28;12.60;99.90
4759;DHT22;2393;50.560;12.636;2023-03-30T11:53:14;12.80;99.90
4759;DHT22;2393;50.560;12.636;2023-03-30T11:56:03;13.00;99.90
4759;DHT22;2393;50.560;12.636;2023-03-30T11:58:35;13.20;99.90
4759;DHT22;2393;50.560;12.636;2023-03-30T12:01:15;13.30;99.90
4759;DHT22;2393;50.560;12.636;2023-03-30T12:03:50;13.40;99.90
4759;DHT22;2393;50.560;12.636;2023-03-30T12:06:27;13.60;99.90
4759;DHT22;2393;50.560;12.636;2023-03-30T12:09:05;14.00;99.90
4759;DHT22;2393;50.560;12.636;2023-03-30T12:11:45;14.40;99.90
4759;DHT22;2393;50.560;12.636;2023-03-30T12:14:37;14.70;99.90
4759;DHT22;2393;50.560;12.636;2023-03-30T12:17:14;14.90;99.90
4759;DHT22;2393;50.560;12.636;2023-03-30T12:19:54;15.00;99.90
4759;DHT22;2393;50.560;12.636;2023-03-30T12:22:29;15.00;99.90
4759;DHT22;2393;50.560;12.636;2023-03-30T12:25:04;15.10;99.90
4759;DHT22;2393;50.560;12.636;2023-03-30T12:27:35;15.30;99.90
4759;DHT22;2393;50.560;12.636;2023-03-30T12:30:24;15.50;99.90
4759;DHT22;2393;50.560;12.636;2023-03-30T12:32:57;15.50;99.90
4759;DHT22;2393;50.560;12.636;2023-03-30T12:35:51;15.60;99.90
4759;DHT22;2393;50.560;12.636;2023-03-30T12:38:21;15.60;99.90
4759;DHT22;2393;50.560;12.636;2023-03-30T12:41:03;15.30;99.90
4759;DHT22;2393;50.560;12.636;2023-03-30T12:44:03;15.20;99.90
4759;DHT22;2393;50.560;12.636;2023-03-30T12:46:40;15.10;99.90
4759;DHT22;2393;50.560;12.636;2023-03-30T12:49:15;14.90;99.90
4759;DHT22;2393;50.560;12.636;2023-03-30T12:51:56;14.80;99.90
4759;DHT22;2393;50.560;12.636;2023-03-30T12:57:37;14.40;99.90
4759;DHT22;2393;50.560;12.636;2023-03-30T13:00:44;14.30;99.90
4759;DHT22;2393;50.560;12.636;2023-03-30T13:03:25;14.20;99.90
4759;DHT22;2393;50.560;12.636;2023-03-30T13:05:59;14.10;99.90
4759;DHT22;2393;50.560;12.636;2023-03-30T13:08:31;14.10;99.90
4759;DHT22;2393;50.560;12.636;2023-03-30T13:11:10;14.10;99.90
4759;DHT22;2393;50.560;12.636;2023-03-30T13:13:53;14.20;99.90
4759;DHT22;2393;50.560;12.636;2023-03-30T13:16:46;14.30;99.90
4759;DHT22;2393;50.560;12.636;2023-03-30T13:19:25;14.40;99.90
4759;DHT22;2393;50.560;12.636;2023-03-30T13:22:10;14.40;99.90
4759;DHT22;2393;50.560;12.636;2023-03-30T13:24:45;14.50;99.90
4759;DHT22;2393;50.560;12.636;2023-03-30T13:27:26;14.90;99.90
4759;DHT22;2393;50.560;12.636;2023-03-30T13:29:57;15.10;99.90
4759;DHT22;2393;50.560;12.636;2023-03-30T13:32:36;15.20;99.90
4759;DHT22;2393;50.560;12.636;2023-03-30T13:35:46;15.10;99.90
4759;DHT22;2393;50.560;12.636;2023-03-30T13:38:33;15.20;99.90
4759;DHT22;2393;50.560;12.636;2023-03-30T13:41:12;15.20;99.90
4759;DHT22;2393;50.560;12.636;2023-03-30T13:43:52;15.20;99.90
4759;DHT22;2393;50.560;12.636;2023-03-30T13:46:28;15.20;99.90
4759;DHT22;2393;50.560;12.636;2023-03-30T13:49:08;15.40;99.90
4759;DHT22;2393;50.560;12.636;2023-03-30T13:51:40;15.40;99.90
4759;DHT22;2393;50.560;12.636;2023-03-30T13:54:12;15.40;99.90
4759;DHT22;2393;50.560;12.636;2023-03-30T13:56:45;15.50;99.90
4759;DHT22;2393;50.560;12.636;2023-03-30T13:59:16;15.50;99.90
4759;DHT22;2393;50.560;12.636;2023-03-30T14:01:50;15.40;99.90
4759;DHT22;2393;50.560;12.636;2023-03-30T14:04:20;15.20;99.90
4759;DHT22;2393;50.560;12.636;2023-03-30T14:06:48;15.10;99.90
4759;DHT22;2393;50.560;12.636;2023-03-30T14:09:21;15.20;99.90
4759;DHT22;2393;50.560;12.636;2023-03-30T14:11:51;15.20;99.90
4759;DHT22;2393;50.560;12.636;2023-03-30T14:14:23;15.30;99.90
4759;DHT22;2393;50.560;12.636;2023-03-30T14:16:54;15.30;99.90
4759;DHT22;2393;50.560;12.636;2023-03-30T14:19:26;15.40;99.90
4759;DHT22;2393;50.560;12.636;2023-03-30T14:21:58;15.50;99.90
4759;DHT22;2393;50.560;12.636;2023-03-30T14:24:29;15.60;99.90
4759;DHT22;2393;50.560;12.636;2023-03-30T14:27:01;15.70;99.90
4759;DHT22;2393;50.560;12.636;2023-03-30T14:29:29;15.90;99.90
4759;DHT22;2393;50.560;12.636;2023-03-30T14:32:02;15.90;99.90
4759;DHT22;2393;50.560;12.636;2023-03-30T14:34:37;15.70;99.90
4759;DHT22;2393;50.560;12.636;2023-03-30T14:37:06;15.80;99.90
4759;DHT22;2393;50.560;12.636;2023-03-30T14:39:39;15.70;99.90
4759;DHT22;2393;50.560;12.636;2023-03-30T14:42:14;15.80;99.90
4759;DHT22;2393;50.560;12.636;2023-03-30T14:44:44;15.80;99.90
4759;DHT22;2393;50.560;12.636;2023-03-30T14:47:13;15.80;99.90
4759;DHT22;2393;50.560;12.636;2023-03-30T14:49:43;15.60;99.90
4759;DHT22;2393;50.560;12.636;2023-03-30T14:52:16;15.60;99.90
4759;DHT22;2393;50.560;12.636;2023-03-30T14:54:46;15.50;99.90
4759;DHT22;2393;50.560;12.636;2023-03-30T14:57:31;15.20;99.90
4759;DHT22;2393;50.560;12.636;2023-03-30T15:00:05;15.00;99.90
4759;DHT22;2393;50.560;12.636;2023-03-30T15:02:49;14.90;99.90
4759;DHT22;2393;50.560;12.636;2023-03-30T15:05:20;14.90;99.90
4759;DHT22;2393;50.560;12.636;2023-03-30T15:07:50;14.80;99.90
4759;DHT22;2393;50.560;12.636;2023-03-30T15:10:21;14.70;99.90
4759;DHT22;2393;50.560;12.636;2023-03-30T15:12:50;14.90;99.90
4759;DHT22;2393;50.560;12.636;2023-03-30T15:15:23;15.00;99.90
4759;DHT22;2393;50.560;12.636;2023-03-30T15:17:52;15.10;99.90
4759;DHT22;2393;50.560;12.636;2023-03-30T15:20:25;15.10;99.90
4759;DHT22;2393;50.560;12.636;2023-03-30T15:22:54;15.00;99.90
4759;DHT22;2393;50.560;12.636;2023-03-30T15:25:27;14.90;99.90
4759;DHT22;2393;50.560;12.636;2023-03-30T15:28:01;14.60;99.90
4759;DHT22;2393;50.560;12.636;2023-03-30T15:30:34;14.20;99.90
4759;DHT22;2393;50.560;12.636;2023-03-30T15:33:26;13.60;99.90
4759;DHT22;2393;50.560;12.636;2023-03-30T15:36:33;13.10;99.90
4759;DHT22;2393;50.560;12.636;2023-03-30T15:40:03;12.50;99.90
4759;DHT22;2393;50.560;12.636;2023-03-30T15:42:49;11.70;99.90
4759;DHT22;2393;50.560;12.636;2023-03-30T15:45:17;11.20;99.90
4759;DHT22;2393;50.560;12.636;2023-03-30T15:47:45;10.90;99.90
4759;DHT22;2393;50.560;12.636;2023-03-30T15:50:13;10.60;99.90
4759;DHT22;2393;50.560;12.636;2023-03-30T15:52:44;10.40;99.90
4759;DHT22;2393;50.560;12.636;2023-03-30T15:55:17;10.20;99.90
4759;DHT22;2393;50.560;12.636;2023-03-30T15:57:47;10.00;99.90
4759;DHT22;2393;50.560;12.636;2023-03-30T16:00:20;9.90;99.90
4759;DHT22;2393;50.560;12.636;2023-03-30T16:02:50;9.80;99.90
4759;DHT22;2393;50.560;12.636;2023-03-30T16:05:25;9.70;99.90
4759;DHT22;2393;50.560;12.636;2023-03-30T16:07:55;9.70;99.90
4759;DHT22;2393;50.560;12.636;2023-03-30T16:10:25;9.60;99.90
4759;DHT22;2393;50.560;12.636;2023-03-30T16:12:55;9.60;99.90
4759;DHT22;2393;50.560;12.636;2023-03-30T16:15:26;9.50;99.90
4759;DHT22;2393;50.560;12.636;2023-03-30T16:17:55;9.60;99.90
4759;DHT22;2393;50.560;12.636;2023-03-30T16:20:25;9.60;99.90
4759;DHT22;2393;50.560;12.636;2023-03-30T16:22:55;9.60;99.90
4759;DHT22;2393;50.560;12.636;2023-03-30T16:25:25;9.60;99.90
4759;DHT22;2393;50.560;12.636;2023-03-30T16:28:13;9.60;99.90
4759;DHT22;2393;50.560;12.636;2023-03-30T16:30:44;9.50;99.90
4759;DHT22;2393;50.560;12.636;2023-03-30T16:33:13;9.50;99.90
4759;DHT22;2393;50.560;12.636;2023-03-30T16:35:41;9.40;99.90
4759;DHT22;2393;50.560;12.636;2023-03-30T16:38:13;9.40;99.90
4759;DHT22;2393;50.560;12.636;2023-03-30T16:40:43;9.40;99.90
4759;DHT22;2393;50.560;12.636;2023-03-30T16:43:12;9.40;99.90
4759;DHT22;2393;50.560;12.636;2023-03-30T16:45:40;9.40;99.90
4759;DHT22;2393;50.560;12.636;2023-03-30T16:48:10;9.40;99.90
4759;DHT22;2393;50.560;12.636;2023-03-30T16:50:40;9.40;99.90
4759;DHT22;2393;50.560;12.636;2023-03-30T16:53:10;9.40;99.90
4759;DHT22;2393;50.560;12.636;2023-03-30T16:55:39;9.40;99.90
4759;DHT22;2393;50.560;12.636;2023-03-30T16:58:10;9.40;99.90
4759;DHT22;2393;50.560;12.636;2023-03-30T17:00:42;9.40;99.90
4759;DHT22;2393;50.560;12.636;2023-03-30T17:03:11;9.40;99.90
4759;DHT22;2393;50.560;12.636;2023-03-30T17:05:40;9.30;99.90
4759;DHT22;2393;50.560;12.636;2023-03-30T17:08:18;9.40;99.90
4759;DHT22;2393;50.560;12.636;2023-03-30T17:10:47;9.40;99.90